Terminal Aerodrome Forecast
Issued by NWS

Home | Current Version | Previous Version | Text Only | Print | Product List | Glossary On
Versions: 1 2 3 4 5 6 7 8 9 10 11 12 13 14 15 16 17 18 19 20 21 22 23 24 25 26 27 28
000
FTUS45 KPSR 252000 AAA
TAFPHX
TAF AMD
KPHX 252057Z 2521/2618 13008KT P6SM FEW100 SCT250
     FM252100 26010KT P6SM VCTS SCT080CB SCT250
     FM260000 20015G25KT P6SM SCT050 BKN200
     FM260700 20012KT P6SM BKN160 OVC250
     FM261100 13008KT P6SM BKN120 BKN150 OVC200=

USA.gov is the U.S. government's official web portal to all federal, state and local government web resources and services.